Garden City, Iowa
Current Conditions -  °F | °C
As of 6:15 PM on Tuesday 25 Nov 2014 (Local Time) from KIFA Reporting Station
Clear Clear  
Wind Chill: 13°   Ceiling: Unl
Heat Index: 23°   Visibility: 10mi
Dew Point: 18°   Wind: 8mph
Humidity: 82%   Direction: 120°ESE
Pressure: 30.05"   Gusts: NA
Location:  42.25°N, 93.4°W
Report Text: KIFA 260015Z AUTO 12007KT 10SM CLR M05/M08 A3005 RMK AO2 T10521078
Loading
Personal Weather Stations






























Interactive Weather Map New forecast layout! Learn more

10-Day Weather Forecast

Advertisements
Track Severe Weather on mobile